Time;durP1;ratioP1;P1;durP2;ratioP2;P2;SDS_P1;SDS_P2;PMS_P1;PMS_P2;Temp;Humidity;BMP_temperature;BMP_pressure;BME280_temperature;BME280_humidity;BME280_pressure;Samples;Min_cycle;Max_cycle;Signal;HPM_P1;HPM_P2
2022/08/24 00:00:34;;;;;;;16.10;7.70;;;20.30;99.90;;;;;;5011316;28;20412;-70
2022/08/24 00:03:01;;;;;;;8.97;8.13;;;20.30;99.90;;;;;;4993483;28;20451;-70
2022/08/24 00:05:27;;;;;;;10.57;6.63;;;20.30;99.90;;;;;;5011454;28;20264;-68
2022/08/24 00:07:52;;;;;;;11.30;7.87;;;20.30;99.90;;;;;;5010999;28;20514;-68
2022/08/24 00:10:20;;;;;;;7.63;6.83;;;20.20;99.90;;;;;;5011170;28;20637;-69
2022/08/24 00:12:46;;;;;;;8.37;7.47;;;20.10;99.90;;;;;;5011221;28;20180;-68
2022/08/24 00:15:13;;;;;;;11.17;7.60;;;20.00;99.90;;;;;;5011317;28;20403;-69
2022/08/24 00:17:39;;;;;;;10.30;7.37;;;20.00;99.90;;;;;;5011185;28;20496;-70
2022/08/24 00:20:08;;;;;;;9.20;7.40;;;20.10;99.90;;;;;;5012978;28;20411;-70
2022/08/24 00:22:34;;;;;;;17.93;9.70;;;20.10;99.90;;;;;;5014336;28;20462;-69
2022/08/24 00:25:00;;;;;;;7.97;6.90;;;20.10;99.90;;;;;;5017532;28;20421;-69
2022/08/24 00:27:26;;;;;;;8.70;7.43;;;20.10;99.90;;;;;;5014049;28;20529;-70
2022/08/24 00:29:52;;;;;;;7.70;7.00;;;20.00;99.90;;;;;;5011921;28;20168;-69
2022/08/24 00:32:17;;;;;;;9.43;7.80;;;19.90;99.90;;;;;;5011731;28;20255;-69
2022/08/24 00:34:43;;;;;;;13.77;7.70;;;19.90;1.00;;;;;;5013355;28;20268;-69
2022/08/24 00:37:09;;;;;;;7.73;7.13;;;19.80;1.00;;;;;;5014354;28;20575;-69
2022/08/24 00:39:35;;;;;;;11.30;7.40;;;19.80;1.00;;;;;;5011485;28;20502;-69
2022/08/24 00:42:01;;;;;;;14.30;8.10;;;19.80;1.00;;;;;;5012118;28;20255;-69
2022/08/24 00:44:27;;;;;;;16.57;7.20;;;19.70;1.00;;;;;;5012386;28;20227;-70
2022/08/24 00:46:57;;;;;;;8.20;7.40;;;19.50;1.00;;;;;;5015013;28;20832;-66
2022/08/24 00:50:01;;;;;;;8.10;7.17;;;19.40;1.00;;;;;;5014237;28;20188;-70
2022/08/24 00:52:32;;;;;;;8.17;7.47;;;19.40;1.00;;;;;;5004050;28;20497;-70
2022/08/24 00:55:04;;;;;;;8.90;7.67;;;19.40;1.00;;;;;;5021652;28;20407;-70
2022/08/24 00:57:37;;;;;;;8.67;7.47;;;19.30;1.00;;;;;;5021594;28;20447;-68
2022/08/24 01:00:15;;;;;;;10.33;7.27;;;19.20;1.00;;;;;;5021672;28;20407;-70
2022/08/24 01:02:44;;;;;;;8.43;7.73;;;19.30;1.00;;;;;;5021730;28;20454;-69
2022/08/24 01:05:11;;;;;;;8.47;7.77;;;19.40;1.00;;;;;;5021953;28;20411;-70
2022/08/24 01:07:38;;;;;;;10.07;7.10;;;19.30;1.00;;;;;;5014064;28;20415;-70
2022/08/24 01:10:08;;;;;;;14.90;9.80;;;19.30;1.00;;;;;;5011275;28;20457;-68
2022/08/24 01:12:36;;;;;;;10.40;7.67;;;19.30;1.00;;;;;;5011122;28;20792;-71
2022/08/24 01:15:05;;;;;;;8.13;7.43;;;19.20;1.00;;;;;;5011018;28;20403;-70
2022/08/24 01:20:16;;;;;;;8.27;7.50;;;19.10;1.00;;;;;;5011271;28;20422;-70
2022/08/24 01:23:19;;;;;;;9.00;8.27;;;19.20;1.00;;;;;;5010721;28;20924;-71
2022/08/24 01:25:45;;;;;;;10.33;7.30;;;19.10;1.00;;;;;;5013590;28;20545;-70
2022/08/24 01:28:16;;;;;;;15.87;8.33;;;19.10;1.00;;;;;;5014090;28;20521;-70
2022/08/24 01:30:43;;;;;;;16.13;8.60;;;19.10;1.00;;;;;;5014329;28;20180;-70
2022/08/24 01:33:20;;;;;;;14.33;7.83;;;19.10;1.00;;;;;;5014058;28;20461;-68
2022/08/24 01:35:46;;;;;;;8.43;7.00;;;19.20;1.00;;;;;;5014095;28;20405;-70
2022/08/24 01:38:12;;;;;;;9.40;8.33;;;19.30;1.00;;;;;;5013607;28;20590;-70
2022/08/24 01:40:43;;;;;;;10.93;7.40;;;19.20;1.00;;;;;;5014205;28;20838;-70
2022/08/24 01:43:11;;;;;;;9.20;8.30;;;19.20;1.00;;;;;;5014157;28;20258;-70
2022/08/24 01:45:37;;;;;;;22.40;8.67;;;19.10;1.00;;;;;;5014178;28;20489;-68
2022/08/24 01:48:03;;;;;;;8.63;7.80;;;19.00;1.00;;;;;;5013940;28;20798;-68
2022/08/24 01:50:30;;;;;;;9.80;8.80;;;19.00;1.00;;;;;;5013755;28;20429;-68
2022/08/24 01:53:00;;;;;;;12.03;7.30;;;19.00;1.00;;;;;;5013939;28;20399;-68
2022/08/24 01:55:27;;;;;;;8.83;8.03;;;19.00;1.00;;;;;;5013747;28;20447;-68
2022/08/24 01:57:53;;;;;;;23.60;9.57;;;18.90;1.00;;;;;;5013509;28;20450;-68
2022/08/24 02:00:18;;;;;;;17.27;9.40;;;19.00;1.00;;;;;;5013751;28;20407;-67
2022/08/24 02:02:44;;;;;;;9.40;8.60;;;19.00;1.00;;;;;;5013608;28;20254;-68
2022/08/24 02:05:12;;;;;;;11.40;10.27;;;19.00;1.00;;;;;;5013832;28;20164;-68
2022/08/24 02:07:38;;;;;;;10.63;8.40;;;19.00;1.00;;;;;;5013401;28;20196;-68
2022/08/24 02:10:07;;;;;;;11.40;9.03;;;19.00;1.00;;;;;;5013238;28;20439;-69
2022/08/24 02:12:37;;;;;;;12.60;8.53;;;19.00;1.00;;;;;;5013398;28;20775;-68
2022/08/24 02:15:05;;;;;;;14.27;10.03;;;18.90;1.00;;;;;;5013393;28;20418;-68
2022/08/24 02:17:31;;;;;;;9.40;8.40;;;18.90;1.00;;;;;;5013139;28;20837;-68
2022/08/24 02:19:56;;;;;;;9.70;8.30;;;18.90;1.00;;;;;;5013029;28;20924;-68
2022/08/24 02:22:22;;;;;;;10.13;7.83;;;18.80;1.00;;;;;;5012964;28;20455;-68
2022/08/24 02:24:48;;;;;;;9.53;7.50;;;18.80;1.00;;;;;;5013273;28;20175;-68
2022/08/24 02:27:15;;;;;;;10.30;7.77;;;18.70;1.00;;;;;;5012822;28;20526;-68
2022/08/24 02:29:42;;;;;;;9.17;8.07;;;18.70;1.00;;;;;;5012992;28;20629;-67
2022/08/24 02:32:10;;;;;;;7.90;7.20;;;18.70;1.00;;;;;;5013148;28;20399;-67
2022/08/24 02:34:35;;;;;;;8.67;7.60;;;18.70;1.00;;;;;;5012667;28;20415;-67
2022/08/24 02:37:01;;;;;;;7.63;7.03;;;18.70;1.00;;;;;;5012714;28;20920;-68
2022/08/24 02:39:28;;;;;;;8.53;7.90;;;18.60;1.00;;;;;;5012685;28;20240;-68
2022/08/24 02:41:53;;;;;;;7.80;7.10;;;18.60;1.00;;;;;;5012878;28;20172;-68
2022/08/24 02:44:20;;;;;;;9.10;8.20;;;18.50;1.00;;;;;;5012695;28;21024;-68
2022/08/24 02:46:46;;;;;;;8.43;7.70;;;18.60;1.00;;;;;;5012888;28;20202;-67
2022/08/24 02:49:11;;;;;;;9.63;7.50;;;18.50;1.00;;;;;;5012174;28;20431;-67
2022/08/24 02:51:40;;;;;;;8.00;7.30;;;18.50;1.00;;;;;;5012584;28;20411;-67
2022/08/24 02:54:06;;;;;;;8.50;7.70;;;18.40;1.00;;;;;;5012445;28;20692;-67
2022/08/24 02:56:32;;;;;;;7.90;7.10;;;18.50;1.00;;;;;;5012412;28;20813;-67
2022/08/24 02:58:59;;;;;;;9.13;7.80;;;18.40;1.00;;;;;;5013044;28;20453;-68
2022/08/24 03:01:26;;;;;;;8.63;7.83;;;18.50;1.00;;;;;;5029465;28;20168;-68
2022/08/24 03:03:53;;;;;;;11.67;7.50;;;18.40;1.00;;;;;;5030172;28;20434;-68
2022/08/24 03:06:19;;;;;;;9.30;7.27;;;18.40;1.00;;;;;;5030165;28;20407;-68
2022/08/24 03:08:45;;;;;;;8.17;7.57;;;18.30;1.00;;;;;;5029134;28;20482;-67
2022/08/24 03:11:12;;;;;;;9.20;7.67;;;18.20;1.00;;;;;;5026577;28;20399;-67
2022/08/24 03:13:38;;;;;;;12.53;8.70;;;18.30;1.00;;;;;;5028645;28;20180;-67
2022/08/24 03:16:05;;;;;;;12.67;7.87;;;18.30;1.00;;;;;;5020324;28;20446;-67
2022/08/24 03:18:32;;;;;;;26.87;8.47;;;18.30;1.00;;;;;;5012733;28;20547;-67
2022/08/24 03:20:59;;;;;;;12.17;7.93;;;18.20;1.00;;;;;;5013492;28;20490;-68
2022/08/24 03:23:26;;;;;;;7.53;6.93;;;18.30;1.00;;;;;;5012527;28;20458;-68
2022/08/24 03:25:52;;;;;;;7.70;7.10;;;18.10;1.00;;;;;;5012303;28;20411;-67
2022/08/24 03:28:20;;;;;;;11.00;8.90;;;18.20;1.00;;;;;;5012303;28;20434;-67
2022/08/24 03:30:46;;;;;;;9.03;8.23;;;18.30;1.00;;;;;;5019135;28;20407;-67
2022/08/24 03:33:12;;;;;;;9.13;8.20;;;18.30;1.00;;;;;;5019006;28;20423;-68
2022/08/24 03:35:39;;;;;;;9.17;8.27;;;18.30;1.00;;;;;;5014128;28;20651;-68
2022/08/24 03:38:06;;;;;;;17.73;8.30;;;18.40;1.00;;;;;;5011684;28;20431;-68
2022/08/24 03:40:33;;;;;;;12.00;8.50;;;18.50;1.00;;;;;;5012024;28;20537;-68
2022/08/24 03:43:00;;;;;;;8.33;7.30;;;18.50;1.00;;;;;;5012049;28;20817;-68
2022/08/24 03:45:26;;;;;;;15.90;8.30;;;18.50;1.00;;;;;;5011916;28;20981;-68
2022/08/24 03:47:52;;;;;;;10.70;8.37;;;18.50;1.00;;;;;;5011085;28;20419;-68
2022/08/24 03:50:19;;;;;;;13.00;9.10;;;18.50;1.00;;;;;;5011769;28;20762;-67
2022/08/24 03:52:45;;;;;;;11.80;7.60;;;18.40;1.00;;;;;;5011846;28;20173;-67
2022/08/24 03:55:12;;;;;;;13.17;8.73;;;18.40;1.00;;;;;;5011863;28;20415;-68
2022/08/24 03:57:38;;;;;;;15.20;8.60;;;18.40;1.00;;;;;;5011367;28;20455;-67
2022/08/24 04:00:06;;;;;;;13.13;9.20;;;18.30;1.00;;;;;;5011680;28;20502;-68
2022/08/24 04:02:32;;;;;;;9.80;8.20;;;18.20;1.00;;;;;;5011312;28;20680;-68
2022/08/24 04:04:58;;;;;;;10.03;8.00;;;18.10;1.00;;;;;;5011453;28;20939;-68
2022/08/24 04:07:24;;;;;;;8.97;8.10;;;18.20;1.00;;;;;;5011206;28;20431;-69
2022/08/24 04:09:50;;;;;;;11.37;8.30;;;18.20;1.00;;;;;;5011071;28;20413;-69
2022/08/24 04:12:16;;;;;;;14.80;8.50;;;18.10;1.00;;;;;;5011186;28;20180;-67
2022/08/24 04:14:41;;;;;;;15.60;8.77;;;18.00;1.00;;;;;;5011380;28;20172;-69
2022/08/24 04:17:07;;;;;;;21.30;9.03;;;18.00;1.00;;;;;;5011019;28;20246;-67
2022/08/24 04:19:33;;;;;;;19.63;8.57;;;18.00;1.00;;;;;;5011064;28;20168;-67
2022/08/24 04:21:59;;;;;;;12.63;8.47;;;18.00;1.00;;;;;;5011162;28;20226;-68
2022/08/24 04:24:25;;;;;;;17.77;9.07;;;18.00;1.00;;;;;;5011079;28;20455;-69
2022/08/24 04:26:52;;;;;;;31.43;8.73;;;18.00;1.00;;;;;;5011174;28;20180;-69
2022/08/24 04:29:19;;;;;;;8.67;6.73;;;18.00;1.00;;;;;;5011206;28;20484;-70
2022/08/24 04:31:46;;;;;;;25.53;8.40;;;18.00;1.00;;;;;;5011243;28;20416;-69
2022/08/24 04:34:13;;;;;;;13.43;7.73;;;18.00;1.00;;;;;;5011343;28;20411;-69
2022/08/24 04:36:41;;;;;;;8.27;6.60;;;18.00;1.00;;;;;;5011216;28;20407;-68
2022/08/24 04:39:08;;;;;;;25.40;9.07;;;17.80;1.00;;;;;;5011017;28;20931;-68
2022/08/24 04:41:34;;;;;;;18.00;7.27;;;17.80;1.00;;;;;;5011029;28;20933;-69
2022/08/24 04:44:00;;;;;;;32.57;8.20;;;17.90;1.00;;;;;;5011136;28;20533;-68
2022/08/24 04:46:27;;;;;;;21.13;8.23;;;17.90;1.00;;;;;;5011011;28;20306;-69
2022/08/24 04:48:53;;;;;;;23.80;8.23;;;17.90;1.00;;;;;;5010503;28;20427;-69
2022/08/24 04:51:20;;;;;;;84.97;12.57;;;17.90;1.00;;;;;;5010934;28;20404;-68
2022/08/24 04:53:47;;;;;;;15.03;7.43;;;17.90;1.00;;;;;;5010989;28;20411;-69
2022/08/24 04:56:20;;;;;;;35.37;8.53;;;17.90;1.00;;;;;;5011274;28;20779;-69
2022/08/24 04:58:46;;;;;;;10.40;7.10;;;17.90;1.00;;;;;;5042139;23;20892;-66
2022/08/24 05:01:14;;;;;;;13.60;6.57;;;17.90;1.00;;;;;;5034486;28;20406;-66
2022/08/24 05:03:42;;;;;;;10.70;7.03;;;17.90;1.00;;;;;;5034322;28;20824;-66
2022/08/24 05:06:13;;;;;;;24.43;7.83;;;17.80;1.00;;;;;;5034390;28;20442;-66
2022/08/24 05:08:40;;;;;;;45.20;9.43;;;17.90;1.00;;;;;;5033916;28;20437;-66
2022/08/24 05:11:07;;;;;;;11.70;6.60;;;18.00;1.00;;;;;;5034108;28;20471;-67
2022/08/24 05:13:36;;;;;;;10.77;6.77;;;18.00;1.00;;;;;;5034084;28;20406;-67
2022/08/24 05:16:07;;;;;;;16.20;7.50;;;18.10;1.00;;;;;;5034122;28;20426;-67
2022/08/24 05:18:33;;;;;;;16.37;6.70;;;18.10;1.00;;;;;;5033757;28;20452;-67
2022/08/24 05:20:59;;;;;;;25.37;8.23;;;18.20;99.90;;;;;;5034229;28;20398;-67
2022/08/24 05:23:25;;;;;;;62.93;9.57;;;18.30;99.90;;;;;;5034140;28;20249;-66
2022/08/24 05:25:51;;;;;;;52.37;9.93;;;18.30;99.90;;;;;;5016334;28;20282;-67
2022/08/24 05:28:17;;;;;;;19.30;7.93;;;19.00;99.90;;;;;;5033713;28;20893;-67
2022/08/24 05:30:43;;;;;;;16.97;6.60;;;20.70;99.90;;;;;;5034044;28;20409;-67
2022/08/24 05:33:09;;;;;;;20.87;7.10;;;22.50;99.90;;;;;;5033947;28;20778;-67
2022/08/24 05:35:39;;;;;;;35.37;8.67;;;23.60;99.90;;;;;;5033898;28;20661;-66
2022/08/24 05:38:05;;;;;;;11.10;6.93;;;24.30;99.90;;;;;;5033806;28;20551;-66
2022/08/24 05:40:31;;;;;;;8.20;6.13;;;24.50;99.90;;;;;;5033847;28;20411;-66
2022/08/24 05:42:57;;;;;;;8.53;7.20;;;23.80;99.90;;;;;;5033488;28;20454;-68
2022/08/24 05:45:23;;;;;;;10.00;6.77;;;22.70;99.90;;;;;;5033732;28;20414;-66
2022/08/24 05:47:49;;;;;;;14.87;7.50;;;22.30;99.90;;;;;;5033417;28;20251;-66
2022/08/24 05:50:15;;;;;;;8.17;6.40;;;22.10;99.90;;;;;;5033710;28;20172;-66
2022/08/24 05:52:40;;;;;;;8.30;7.30;;;22.20;99.90;;;;;;5033948;28;20229;-66
2022/08/24 05:55:07;;;;;;;11.57;7.90;;;22.40;99.90;;;;;;5032920;28;20668;-66
2022/08/24 05:57:34;;;;;;;9.37;7.57;;;22.30;99.90;;;;;;5033448;28;20643;-67
2022/08/24 06:00:00;;;;;;;9.47;7.00;;;22.20;99.90;;;;;;5033800;28;20500;-66
2022/08/24 06:02:26;;;;;;;11.43;8.80;;;22.00;99.90;;;;;;5034143;28;20401;-66
2022/08/24 06:04:52;;;;;;;9.50;8.70;;;22.10;99.90;;;;;;5033901;28;20398;-67
2022/08/24 06:07:18;;;;;;;11.03;9.93;;;21.50;99.90;;;;;;5033309;28;20160;-67
2022/08/24 06:09:44;;;;;;;21.20;9.40;;;21.60;99.90;;;;;;5033002;28;20198;-66
2022/08/24 06:12:10;;;;;;;11.67;7.50;;;22.10;99.90;;;;;;5033163;28;20175;-67
2022/08/24 06:14:37;;;;;;;15.10;8.67;;;22.50;99.90;;;;;;5033416;28;20433;-66
2022/08/24 06:17:07;;;;;;;8.30;7.63;;;22.60;99.90;;;;;;5033484;28;20754;-66
2022/08/24 06:19:34;;;;;;;8.83;7.73;;;22.40;99.90;;;;;;5033050;28;20790;-67
2022/08/24 06:22:00;;;;;;;14.20;8.70;;;21.90;99.90;;;;;;5033251;28;20425;-67
2022/08/24 06:27:21;;;;;;;8.90;8.10;;;21.60;99.90;;;;;;5033631;28;20777;-67
2022/08/24 06:29:53;;;;;;;8.73;7.93;;;21.80;99.90;;;;;;5033193;28;20948;-67
2022/08/24 06:32:19;;;;;;;14.60;8.70;;;21.90;99.90;;;;;;5033257;28;20977;-67
2022/08/24 06:34:45;;;;;;;11.00;8.90;;;21.70;99.90;;;;;;5033040;28;20414;-68
2022/08/24 06:37:11;;;;;;;9.07;8.23;;;21.70;99.90;;;;;;5033119;28;20561;-66
2022/08/24 06:39:37;;;;;;;9.50;8.60;;;21.40;99.90;;;;;;5032645;28;20431;-66
2022/08/24 06:42:04;;;;;;;8.53;7.90;;;21.60;99.90;;;;;;5032780;28;20406;-67
2022/08/24 06:44:30;;;;;;;10.20;8.50;;;21.70;99.90;;;;;;5032481;28;20579;-67
2022/08/24 06:46:56;;;;;;;9.93;8.50;;;21.10;99.90;;;;;;5032783;28;20407;-67
2022/08/24 06:49:23;;;;;;;8.93;8.13;;;20.80;99.90;;;;;;5032482;28;20430;-67
2022/08/24 06:51:49;;;;;;;8.33;7.43;;;21.10;99.90;;;;;;5032676;28;20410;-67
2022/08/24 06:54:15;;;;;;;9.90;8.67;;;21.60;99.90;;;;;;5032610;28;20774;-67
2022/08/24 06:56:41;;;;;;;9.43;8.37;;;22.10;99.90;;;;;;5032402;28;20413;-67
2022/08/24 06:59:07;;;;;;;9.80;8.00;;;22.10;99.90;;;;;;5032023;28;20878;-66
2022/08/24 07:01:33;;;;;;;8.70;7.87;;;22.70;99.90;;;;;;5032327;28;20438;-67
2022/08/24 07:03:59;;;;;;;8.37;7.60;;;22.80;99.90;;;;;;5032417;28;20207;-67
2022/08/24 07:06:25;;;;;;;15.20;8.07;;;23.00;99.90;;;;;;5032715;28;20419;-67
2022/08/24 07:08:52;;;;;;;9.83;8.93;;;23.10;99.90;;;;;;5031759;28;20603;-66
2022/08/24 07:11:18;;;;;;;13.53;8.37;;;23.00;99.90;;;;;;5032580;28;20175;-67
2022/08/24 07:13:48;;;;;;;8.77;8.07;;;23.20;99.90;;;;;;5032273;28;20407;-68
2022/08/24 07:16:15;;;;;;;9.13;7.73;;;22.60;99.90;;;;;;5032102;28;20564;-68
2022/08/24 07:18:41;;;;;;;12.10;10.83;;;22.10;99.90;;;;;;5031908;28;20969;-66
2022/08/24 07:21:07;;;;;;;12.10;8.57;;;22.00;99.90;;;;;;5031916;28;20411;-66
2022/08/24 07:23:33;;;;;;;10.00;9.00;;;22.30;99.90;;;;;;5031020;28;20207;-67
2022/08/24 07:26:09;;;;;;;12.80;9.10;;;22.40;99.90;;;;;;5032077;28;20176;-66
2022/08/24 07:28:37;;;;;;;9.90;8.90;;;23.00;99.90;;;;;;5031476;28;20492;-66
2022/08/24 07:31:04;;;;;;;10.50;9.60;;;23.20;99.90;;;;;;5031778;28;20406;-67
2022/08/24 07:33:30;;;;;;;9.60;8.70;;;22.70;99.90;;;;;;5030427;28;20418;-67
2022/08/24 07:35:56;;;;;;;11.60;9.80;;;22.30;99.90;;;;;;5031729;28;20442;-67
2022/08/24 07:38:22;;;;;;;10.60;9.60;;;22.30;99.90;;;;;;5031709;28;20464;-67
2022/08/24 07:40:48;;;;;;;10.77;9.87;;;22.50;99.90;;;;;;5031951;28;20171;-67
2022/08/24 07:43:13;;;;;;;12.33;11.10;;;22.20;99.90;;;;;;5031605;28;20207;-67
2022/08/24 07:45:41;;;;;;;11.20;10.20;;;21.80;99.90;;;;;;5031628;28;20230;-67
2022/08/24 07:48:07;;;;;;;12.37;11.27;;;21.30;99.90;;;;;;5030906;28;20214;-67
2022/08/24 07:50:36;;;;;;;11.93;10.57;;;21.20;99.90;;;;;;5031396;28;20406;-66
2022/08/24 07:53:01;;;;;;;15.73;11.43;;;21.30;99.90;;;;;;5031524;28;20418;-66
2022/08/24 07:55:27;;;;;;;12.53;10.33;;;21.30;99.90;;;;;;5031378;28;20445;-66
2022/08/24 07:57:53;;;;;;;11.83;10.83;;;21.90;99.90;;;;;;5031000;28;20207;-67
2022/08/24 08:00:20;;;;;;;11.40;10.10;;;22.00;99.90;;;;;;5031454;28;20647;-67
2022/08/24 08:02:47;;;;;;;11.40;10.30;;;22.60;99.90;;;;;;5031429;28;20203;-66
2022/08/24 08:05:18;;;;;;;13.00;11.70;;;22.40;99.90;;;;;;5031325;28;20463;-66
2022/08/24 08:07:44;;;;;;;12.00;10.80;;;21.80;99.90;;;;;;5031094;28;20394;-66
2022/08/24 08:10:11;;;;;;;11.53;10.17;;;21.90;99.90;;;;;;5031326;28;20394;-66
2022/08/24 08:12:37;;;;;;;10.53;9.40;;;22.40;99.90;;;;;;5031170;28;20542;-67
2022/08/24 08:15:04;;;;;;;10.83;9.83;;;23.20;99.90;;;;;;5031133;28;20415;-67
2022/08/24 08:17:30;;;;;;;11.47;10.47;;;23.50;99.90;;;;;;5030884;28;20414;-66
2022/08/24 08:19:55;;;;;;;11.47;10.53;;;23.50;99.90;;;;;;5031003;28;20486;-67
2022/08/24 08:25:06;;;;;;;12.03;10.87;;;23.00;99.90;;;;;;5032236;28;20706;-67
2022/08/24 08:27:34;;;;;;;12.00;11.00;;;23.20;99.90;;;;;;5037170;28;20418;-67
2022/08/24 08:30:00;;;;;;;11.67;9.40;;;23.60;99.90;;;;;;5038782;28;20818;-67
2022/08/24 08:32:26;;;;;;;11.10;10.20;;;23.60;99.90;;;;;;5038783;28;20962;-67
2022/08/24 08:34:52;;;;;;;13.00;10.73;;;23.90;99.90;;;;;;5030684;28;20769;-67
2022/08/24 08:37:18;;;;;;;17.50;10.93;;;24.10;99.90;;;;;;5030823;28;20512;-67
2022/08/24 08:39:44;;;;;;;10.03;9.03;;;23.80;99.90;;;;;;5030591;28;20451;-67
2022/08/24 08:42:47;;;;;;;10.90;9.90;;;23.40;99.90;;;;;;5030967;28;20402;-67
2022/08/24 08:45:19;;;;;;;10.50;9.50;;;23.50;99.90;;;;;;5030933;28;20187;-67
2022/08/24 08:48:30;;;;;;;11.10;9.77;;;23.90;99.90;;;;;;5030580;28;20813;-66
2022/08/24 08:50:56;;;;;;;9.30;8.40;;;23.90;99.90;;;;;;4969252;28;20499;-66
2022/08/24 08:53:34;;;;;;;10.23;9.30;;;24.40;99.90;;;;;;4969411;28;20489;-67
2022/08/24 08:56:15;;;;;;;11.90;9.43;;;24.40;99.90;;;;;;5003030;28;20186;-66
2022/08/24 08:58:50;;;;;;;10.63;9.67;;;24.50;99.90;;;;;;5030110;28;20469;-66
2022/08/24 09:01:34;;;;;;;9.67;8.77;;;23.80;99.90;;;;;;5030567;28;20420;-67
2022/08/24 09:04:18;;;;;;;10.87;9.57;;;23.50;99.90;;;;;;5030143;28;20458;-67
2022/08/24 09:06:56;;;;;;;12.83;9.47;;;23.50;99.90;;;;;;5030329;28;20455;-66
2022/08/24 09:09:59;;;;;;;10.33;9.33;;;23.40;99.90;;;;;;5030193;28;20421;-67
2022/08/24 09:12:36;;;;;;;12.50;9.37;;;23.90;99.90;;;;;;5030290;28;20448;-67
2022/08/24 09:15:20;;;;;;;13.53;8.03;;;24.20;99.90;;;;;;5030352;28;20405;-67
2022/08/24 09:18:05;;;;;;;10.73;9.80;;;24.70;99.90;;;;;;5030365;28;20452;-67
2022/08/24 09:20:31;;;;;;;11.80;8.70;;;23.80;99.90;;;;;;5029980;28;20402;-67
2022/08/24 09:23:14;;;;;;;10.60;9.60;;;23.90;99.90;;;;;;5030341;28;20448;-68
2022/08/24 09:25:48;;;;;;;11.37;9.60;;;23.90;99.90;;;;;;5030511;28;20195;-67
2022/08/24 09:29:08;;;;;;;11.57;7.87;;;24.10;99.90;;;;;;5029905;28;20940;-67
2022/08/24 09:31:45;;;;;;;9.67;8.20;;;24.40;99.90;;;;;;4969024;28;20973;-67
2022/08/24 09:34:23;;;;;;;10.60;9.00;;;24.60;99.90;;;;;;5030255;28;20862;-67
2022/08/24 09:36:57;;;;;;;9.50;8.13;;;24.70;99.90;;;;;;5030237;28;20410;-66
2022/08/24 09:39:36;;;;;;;9.67;8.67;;;24.70;99.90;;;;;;5030052;28;20426;-66
2022/08/24 09:42:20;;;;;;;13.50;7.83;;;24.40;99.90;;;;;;5030020;28;20421;-66
2022/08/24 09:44:46;;;;;;;8.93;7.33;;;24.50;99.90;;;;;;5029909;28;20406;-66
2022/08/24 09:47:36;;;;;;;9.80;8.03;;;24.60;99.90;;;;;;5033221;28;20402;-67
2022/08/24 09:50:41;;;;;;;15.93;7.27;;;24.90;99.90;;;;;;5025230;28;20576;-67
2022/08/24 09:53:19;;;;;;;10.73;7.77;;;25.30;99.90;;;;;;5033353;28;20398;-67
2022/08/24 09:55:45;;;;;;;9.20;7.47;;;25.20;99.90;;;;;;5033006;28;20402;-67
2022/08/24 09:58:36;;;;;;;7.27;6.57;;;25.10;99.90;;;;;;5032880;28;20453;-67
2022/08/24 10:01:52;;;;;;;7.80;7.00;;;25.40;99.90;;;;;;5033340;28;20171;-67
2022/08/24 10:04:52;;;;;;;22.87;9.17;;;25.40;99.90;;;;;;5007253;28;20466;-67
2022/08/24 10:07:30;;;;;;;10.10;6.20;;;25.30;99.90;;;;;;5032832;28;20394;-67
2022/08/24 10:10:19;;;;;;;6.10;5.60;;;25.50;99.90;;;;;;5032688;28;20406;-67
2022/08/24 10:13:13;;;;;;;5.63;5.10;;;25.30;99.90;;;;;;5032677;28;20406;-66
2022/08/24 10:15:42;;;;;;;10.20;6.23;;;25.00;99.90;;;;;;5032590;28;20399;-66
2022/08/24 10:18:22;;;;;;;7.43;6.73;;;24.80;99.90;;;;;;5032271;28;20414;-66
2022/08/24 10:21:04;;;;;;;5.53;5.10;;;24.60;99.90;;;;;;5032744;28;20429;-66
2022/08/24 10:23:39;;;;;;;10.10;6.07;;;24.90;99.90;;;;;;5033015;28;20453;-67
2022/08/24 10:26:26;;;;;;;8.80;5.70;;;25.10;99.90;;;;;;5031207;28;20410;-67
2022/08/24 10:29:11;;;;;;;9.77;6.73;;;24.90;99.90;;;;;;5032354;28;20981;-67
2022/08/24 10:32:13;;;;;;;5.47;4.97;;;25.00;99.90;;;;;;5032572;28;20399;-67
2022/08/24 10:34:42;;;;;;;6.37;4.40;;;25.10;99.90;;;;;;5032931;28;20948;-67
2022/08/24 10:37:11;;;;;;;5.73;4.87;;;25.10;99.90;;;;;;5032611;28;20421;-68
2022/08/24 10:39:44;;;;;;;4.97;3.53;;;25.10;99.90;;;;;;5031203;28;20977;-68
2022/08/24 10:43:32;;;;;;;6.60;4.93;;;25.30;99.90;;;;;;5026730;28;20464;-68
2022/08/24 10:45:09;;;;;;;4.13;3.73;;;25.00;99.90;;;;;;5031283;28;20443;-68
2022/08/24 10:47:35;;;;;;;7.37;3.77;;;25.00;99.90;;;;;;5023575;28;20429;-66
2022/08/24 10:50:07;;;;;;;7.40;3.93;;;25.10;99.90;;;;;;5031858;28;20899;-67
2022/08/24 10:53:03;;;;;;;4.60;3.73;;;25.10;99.90;;;;;;5012112;28;20777;-68
2022/08/24 10:55:32;;;;;;;5.77;4.07;;;25.20;99.90;;;;;;5020023;28;20566;-67
2022/08/24 10:58:25;;;;;;;4.43;3.33;;;25.20;99.90;;;;;;5030479;28;20453;-65
2022/08/24 11:00:51;;;;;;;19.87;5.23;;;25.30;99.90;;;;;;5031802;28;20516;-66
2022/08/24 11:03:25;;;;;;;6.90;4.53;;;25.80;99.90;;;;;;5032114;28;20457;-66
2022/08/24 11:05:54;;;;;;;4.27;3.70;;;25.70;99.90;;;;;;5029454;28;20464;-66
2022/08/24 11:08:23;;;;;;;6.83;3.60;;;25.50;99.90;;;;;;5030094;28;20418;-65
2022/08/24 11:11:09;;;;;;;7.23;3.60;;;25.30;99.90;;;;;;5030348;28;20418;-66
2022/08/24 11:13:37;;;;;;;3.53;3.23;;;25.40;99.90;;;;;;5024363;28;20914;-66
2022/08/24 11:16:05;;;;;;;4.40;3.93;;;25.10;99.90;;;;;;5031512;28;20513;-66
2022/08/24 11:18:54;;;;;;;12.03;4.23;;;25.10;99.90;;;;;;5031845;28;21075;-67
2022/08/24 11:21:51;;;;;;;4.20;3.90;;;25.40;99.90;;;;;;5032160;28;20418;-66
2022/08/24 11:24:25;;;;;;;4.17;3.77;;;25.60;99.90;;;;;;5031582;28;20489;-66
2022/08/24 11:27:02;;;;;;;5.40;3.93;;;25.80;99.90;;;;;;5031961;28;20414;-66
2022/08/24 11:29:48;;;;;;;7.10;3.93;;;25.80;99.90;;;;;;5032727;28;20418;-66
2022/08/24 11:32:36;;;;;;;8.40;5.33;;;25.70;99.90;;;;;;5032829;28;20958;-66
2022/08/24 11:35:08;;;;;;;11.07;4.20;;;25.70;99.90;;;;;;5032732;28;20425;-66
2022/08/24 11:37:37;;;;;;;5.43;3.50;;;25.60;99.90;;;;;;5032172;28;20492;-66
2022/08/24 11:40:06;;;;;;;3.80;3.40;;;25.40;99.90;;;;;;5032246;28;20418;-65
2022/08/24 11:42:50;;;;;;;4.20;3.80;;;25.50;99.90;;;;;;5031911;28;20473;-66
2022/08/24 11:45:35;;;;;;;6.00;4.50;;;25.50;99.90;;;;;;5031692;28;20394;-65
2022/08/24 11:48:26;;;;;;;9.53;4.40;;;25.40;99.90;;;;;;5031328;28;20421;-65
2022/08/24 11:50:56;;;;;;;5.90;4.20;;;25.80;99.90;;;;;;5031290;28;20394;-65
2022/08/24 11:53:46;;;;;;;4.43;3.60;;;25.80;99.90;;;;;;5031320;28;20407;-65
2022/08/24 11:56:17;;;;;;;4.50;4.10;;;25.60;99.90;;;;;;5031200;28;20394;-66
2022/08/24 11:59:05;;;;;;;7.20;4.47;;;25.60;99.90;;;;;;5030838;28;20457;-65
2022/08/24 12:01:34;;;;;;;12.20;4.70;;;25.80;99.90;;;;;;5031352;28;20441;-65
2022/08/24 12:04:08;;;;;;;3.60;3.30;;;25.90;99.90;;;;;;5031211;28;20461;-65
2022/08/24 12:06:56;;;;;;;5.23;3.90;;;26.00;99.90;;;;;;5031111;28;20393;-66
2022/08/24 12:09:41;;;;;;;5.10;3.83;;;26.00;99.90;;;;;;5029232;28;20433;-66
2022/08/24 12:12:14;;;;;;;4.47;4.17;;;25.80;99.90;;;;;;5029712;28;20765;-66
2022/08/24 12:14:50;;;;;;;4.50;4.10;;;25.90;99.90;;;;;;5030572;28;20432;-66
2022/08/24 12:17:25;;;;;;;6.00;4.47;;;25.80;99.90;;;;;;5029732;28;20513;-66
2022/08/24 12:19:58;;;;;;;5.83;3.37;;;25.60;99.90;;;;;;5027978;28;20441;-66
2022/08/24 12:22:25;;;;;;;4.83;4.40;;;25.90;99.90;;;;;;5028282;28;20426;-65
2022/08/24 12:24:55;;;;;;;9.10;4.33;;;25.70;99.90;;;;;;5030531;28;20398;-66
2022/08/24 12:27:28;;;;;;;4.80;4.10;;;25.70;99.90;;;;;;5030979;28;20402;-66
2022/08/24 12:30:06;;;;;;;5.50;5.00;;;25.70;99.90;;;;;;5029489;28;20433;-66
2022/08/24 12:32:50;;;;;;;8.20;4.97;;;25.80;99.90;;;;;;5028349;28;20429;-66
2022/08/24 12:35:34;;;;;;;4.60;4.20;;;25.80;99.90;;;;;;5030132;28;20563;-66
2022/08/24 12:38:11;;;;;;;4.63;4.20;;;26.00;99.90;;;;;;5029422;28;20442;-66
2022/08/24 12:40:46;;;;;;;10.60;5.10;;;26.10;99.90;;;;;;5022974;28;20406;-66
2022/08/24 12:43:41;;;;;;;7.40;4.00;;;26.00;99.90;;;;;;5028195;28;21003;-66
2022/08/24 12:46:06;;;;;;;11.93;4.67;;;25.80;99.90;;;;;;5030240;28;20410;-65
2022/08/24 12:48:41;;;;;;;7.50;4.43;;;25.70;99.90;;;;;;5028652;28;20442;-65
2022/08/24 12:51:37;;;;;;;5.20;4.80;;;25.70;99.90;;;;;;5012310;28;20179;-65
2022/08/24 12:54:36;;;;;;;4.40;4.00;;;25.50;99.90;;;;;;5030484;28;20430;-65
2022/08/24 12:57:25;;;;;;;10.93;4.77;;;25.70;99.90;;;;;;5030468;28;20414;-66
2022/08/24 12:59:58;;;;;;;9.37;4.80;;;26.20;99.90;;;;;;5012263;28;20966;-66
2022/08/24 13:02:29;;;;;;;4.97;4.47;;;26.40;99.90;;;;;;5027774;28;20508;-65
2022/08/24 13:05:03;;;;;;;4.40;4.00;;;26.20;99.90;;;;;;5029815;28;20402;-65
2022/08/24 13:07:38;;;;;;;5.23;4.73;;;26.00;99.90;;;;;;5030130;28;20398;-66
2022/08/24 13:10:13;;;;;;;6.07;4.40;;;25.90;99.90;;;;;;5034731;28;20405;-67
2022/08/24 13:12:48;;;;;;;7.50;4.70;;;26.10;99.90;;;;;;5038224;28;20761;-67
2022/08/24 13:15:26;;;;;;;4.37;3.97;;;26.20;99.90;;;;;;5039361;28;20465;-66